Time;durP1;ratioP1;P1;durP2;ratioP2;P2;SDS_P1;SDS_P2;PMS_P1;PMS_P2;Temp;Humidity;BMP_temperature;BMP_pressure;BME280_temperature;BME280_humidity;BME280_pressure;Samples;Min_cycle;Max_cycle;Signal;HPM_P1;HPM_P2
2021/09/27 00:01:31;;;;;;;17.42;7.53;;;;;;;5.30;100.00;100006.55;1807192;79;20920;-60
2021/09/27 00:04:03;;;;;;;24.20;8.60;;;;;;;5.25;100.00;100001.84;1807651;79;21777;-60
2021/09/27 00:06:29;;;;;;;17.82;9.55;;;;;;;5.24;100.00;100005.54;1807201;79;20834;-60
2021/09/27 00:08:55;;;;;;;25.85;11.70;;;;;;;5.25;100.00;100005.83;1807644;79;20881;-62
2021/09/27 00:11:24;;;;;;;12.28;8.15;;;;;;;5.25;100.00;100001.84;1807364;79;20858;-62
2021/09/27 00:13:54;;;;;;;20.30;9.18;;;;;;;5.22;100.00;100006.74;1796308;79;21048;-62
2021/09/27 00:16:21;;;;;;;14.33;8.00;;;;;;;5.20;100.00;100007.48;1796338;79;21677;-62
2021/09/27 00:18:48;;;;;;;18.98;7.92;;;;;;;5.22;100.00;100006.25;1796453;80;20948;-62
2021/09/27 00:21:22;;;;;;;9.70;6.78;;;;;;;5.26;100.00;100006.13;1807278;79;20940;-62
2021/09/27 00:23:48;;;;;;;10.38;7.12;;;;;;;5.31;100.00;100008.98;1795833;79;22166;-62
2021/09/27 00:26:16;;;;;;;14.78;7.45;;;;;;;5.27;100.00;100002.97;1796329;79;20936;-62
2021/09/27 00:28:42;;;;;;;12.68;7.90;;;;;;;5.15;100.00;99996.94;1796598;79;21099;-62
2021/09/27 00:31:09;;;;;;;7.60;6.10;;;;;;;5.11;100.00;99998.89;1796297;79;20850;-62
2021/09/27 00:33:36;;;;;;;15.38;7.17;;;;;;;5.04;100.00;99996.23;1796694;80;20886;-62
2021/09/27 00:36:03;;;;;;;15.93;7.22;;;;;;;5.01;100.00;100001.97;1796200;80;20906;-62
2021/09/27 00:38:29;;;;;;;13.18;6.75;;;;;;;5.00;100.00;100002.16;1796416;79;20850;-62
2021/09/27 00:41:00;;;;;;;7.92;5.80;;;;;;;5.01;100.00;99999.83;1796202;80;21150;-62
2021/09/27 00:43:28;;;;;;;9.90;6.80;;;;;;;4.92;100.00;100002.71;1807595;79;20936;-62
2021/09/27 00:45:58;;;;;;;9.45;6.08;;;;;;;4.89;100.00;100006.28;1807379;79;20951;-61
2021/09/27 00:48:26;;;;;;;11.22;6.62;;;;;;;4.83;100.00;100005.27;1807718;79;20917;-62
2021/09/27 00:50:59;;;;;;;13.40;6.10;;;;;;;4.72;100.00;100006.67;1807456;79;20896;-62
2021/09/27 00:53:43;;;;;;;9.13;5.33;;;;;;;4.66;100.00;100013.34;1807240;79;21158;-62
2021/09/27 00:56:11;;;;;;;8.48;6.65;;;;;;;4.71;100.00;100012.22;1807267;79;21325;-61
2021/09/27 00:58:38;;;;;;;8.58;6.78;;;;;;;4.76;100.00;100017.74;1807484;79;20853;-62
2021/09/27 01:01:05;;;;;;;11.18;6.72;;;;;;;4.69;100.00;100014.26;1807435;79;21363;-62
2021/09/27 01:03:32;;;;;;;13.55;7.35;;;;;;;4.60;100.00;100014.95;1807497;79;21388;-62
2021/09/27 01:06:27;;;;;;;9.05;6.37;;;;;;;4.54;100.00;100008.33;1807354;79;21179;-62
2021/09/27 01:09:34;;;;;;;10.03;7.65;;;;;;;4.51;100.00;100015.68;1807332;79;21652;-62
2021/09/27 01:12:40;;;;;;;11.40;6.60;;;;;;;4.55;100.00;100016.59;1756011;81;21027;-61
2021/09/27 01:15:18;;;;;;;15.45;7.65;;;;;;;4.60;100.00;100017.61;1755727;81;20890;-61
2021/09/27 01:18:05;;;;;;;17.73;7.30;;;;;;;4.56;100.00;100013.74;1756067;81;21478;-61
2021/09/27 01:20:52;;;;;;;17.32;8.35;;;;;;;4.56;100.00;100015.56;1755700;81;21145;-62
2021/09/27 01:23:37;;;;;;;20.48;8.43;;;;;;;4.56;100.00;100012.42;1755017;81;20866;-60
2021/09/27 01:26:58;;;;;;;22.05;8.88;;;;;;;4.58;100.00;100008.20;1755893;81;21491;-60
2021/09/27 01:29:45;;;;;;;11.70;6.62;;;;;;;4.64;100.00;100016.20;1756046;81;21427;-61
2021/09/27 01:32:50;;;;;;;12.15;7.95;;;;;;;4.74;100.00;100021.11;1755888;81;21060;-61
2021/09/27 01:35:48;;;;;;;8.23;5.80;;;;;;;4.77;100.00;100026.53;1755787;81;21113;-62
2021/09/27 01:38:51;;;;;;;10.00;5.62;;;;;;;4.77;100.00;100024.69;1755774;81;20897;-62
2021/09/27 01:41:44;;;;;;;9.08;5.85;;;;;;;4.73;100.00;100030.13;1756003;81;20909;-62
2021/09/27 01:44:34;;;;;;;11.70;7.00;;;;;;;4.71;100.00;100034.83;1755480;80;21479;-62
2021/09/27 01:47:07;;;;;;;10.72;6.15;;;;;;;4.69;100.00;100030.21;1755885;80;21013;-61
2021/09/27 01:50:00;;;;;;;18.60;10.10;;;;;;;4.62;100.00;100031.53;1793545;79;21709;-62
2021/09/27 01:52:34;;;;;;;28.52;12.25;;;;;;;4.51;100.00;100028.97;1799282;79;21320;-63
2021/09/27 01:55:06;;;;;;;24.72;15.25;;;;;;;4.44;100.00;100032.64;1801978;78;20960;-62
2021/09/27 01:57:38;;;;;;;19.00;11.30;;;;;;;4.32;100.00;100033.73;1801129;79;20940;-63
2021/09/27 02:00:21;;;;;;;28.27;14.95;;;;;;;4.21;100.00;100033.80;1801174;79;21507;-62
2021/09/27 02:02:59;;;;;;;9.65;7.53;;;;;;;4.15;100.00;100043.09;1753859;81;21130;-63
2021/09/27 02:05:46;;;;;;;13.10;8.78;;;;;;;4.10;100.00;100041.55;1790528;79;21241;-60
2021/09/27 02:08:27;;;;;;;36.48;8.83;;;;;;;4.05;100.00;100039.48;1802259;79;20901;-60
2021/09/27 02:11:22;;;;;;;16.05;9.18;;;;;;;3.98;100.00;100047.42;1770952;79;20854;-61
2021/09/27 02:14:16;;;;;;;13.10;8.58;;;;;;;3.94;100.00;100037.39;1792805;79;20865;-62
2021/09/27 02:17:11;;;;;;;10.88;8.65;;;;;;;3.91;100.00;100033.30;1802303;79;21114;-62
2021/09/27 02:20:00;;;;;;;19.27;10.82;;;;;;;3.88;100.00;100037.68;1802538;79;20833;-61
2021/09/27 02:23:09;;;;;;;14.68;9.23;;;;;;;3.81;100.00;100040.81;1783951;80;20864;-61
2021/09/27 02:25:37;;;;;;;17.37;9.00;;;;;;;3.72;100.00;100036.16;1783773;80;20869;-61
2021/09/27 02:28:08;;;;;;;14.45;8.23;;;;;;;3.68;100.00;100044.75;1783942;80;20951;-61
2021/09/27 02:30:58;;;;;;;14.73;8.48;;;;;;;3.64;100.00;100044.30;1783371;80;21184;-63
2021/09/27 02:33:45;;;;;;;11.55;8.40;;;;;;;3.59;100.00;100048.88;1783702;80;21538;-61
2021/09/27 02:36:36;;;;;;;12.65;8.55;;;;;;;3.56;100.00;100047.94;1783899;80;21453;-61
2021/09/27 02:39:20;;;;;;;15.63;8.28;;;;;;;3.55;100.00;100042.34;1783784;80;20939;-60
2021/09/27 02:42:00;;;;;;;15.43;8.98;;;;;;;3.56;100.00;100042.63;1783996;80;21410;-60
2021/09/27 02:44:27;;;;;;;10.48;8.40;;;;;;;3.54;100.00;100045.98;1783741;80;21184;-61
2021/09/27 02:46:56;;;;;;;11.95;8.28;;;;;;;3.56;100.00;100043.14;1783665;80;20980;-61
2021/09/27 02:49:26;;;;;;;;;;;;;;;3.55;100.00;100038.35;1753499;80;20927;-60
2021/09/27 02:51:52;;;;;;;14.68;8.03;;;;;;;3.54;100.00;100045.17;1783398;80;20198;-61
2021/09/27 02:54:30;;;;;;;9.53;7.37;;;;;;;3.51;100.00;100039.75;1780742;80;21386;-60
2021/09/27 02:57:34;;;;;;;18.20;9.63;;;;;;;3.52;100.00;100050.66;1781016;80;21105;-60
2021/09/27 03:00:22;;;;;;;12.78;8.90;;;;;;;3.55;100.00;100049.45;1801638;79;20826;-60
2021/09/27 03:03:17;;;;;;;15.00;8.35;;;;;;;3.58;100.00;100053.87;1802061;79;21343;-60
2021/09/27 03:06:11;;;;;;;10.70;7.62;;;;;;;3.60;100.00;100059.81;1752708;81;21368;-60
2021/09/27 03:08:52;;;;;;;10.50;8.35;;;;;;;3.68;100.00;100056.18;1802127;78;21344;-60
2021/09/27 03:11:33;;;;;;;8.63;6.47;;;;;;;3.60;100.00;100061.14;1802202;79;21125;-60
2021/09/27 03:14:29;;;;;;;15.70;7.22;;;;;;;3.53;100.00;100062.09;1753737;81;20969;-59
2021/09/27 03:17:17;;;;;;;8.98;7.25;;;;;;;3.48;100.00;100064.03;1800689;79;20936;-61
2021/09/27 03:20:21;;;;;;;9.65;7.58;;;;;;;3.42;100.00;100066.12;1802105;78;20850;-61
2021/09/27 03:23:02;;;;;;;10.68;6.92;;;;;;;3.33;100.00;100070.78;1802205;79;21352;-61
2021/09/27 03:26:00;;;;;;;7.47;6.50;;;;;;;3.26;100.00;100073.89;1688422;83;21089;-62
2021/09/27 03:29:02;;;;;;;;;;;;;;;3.22;100.00;100070.78;1659475;85;20880;-62
2021/09/27 03:32:09;;;;;;;14.87;7.70;;;;;;;3.19;100.00;100073.83;1690866;84;20237;-61
2021/09/27 03:35:14;;;;;;;9.40;7.45;;;;;;;3.15;100.00;100073.89;1630483;87;20865;-60
2021/09/27 03:38:08;;;;;;;13.48;7.90;;;;;;;3.09;100.00;100068.55;1662559;86;20935;-60
2021/09/27 03:41:18;;;;;;;11.88;7.92;;;;;;;3.14;100.00;100070.13;1630457;87;21152;-61
2021/09/27 03:44:05;;;;;;;12.53;8.58;;;;;;;3.09;100.00;100067.23;1663088;86;21000;-61
2021/09/27 03:46:52;;;;;;;13.78;8.75;;;;;;;3.05;100.00;100073.41;1662931;86;21425;-62
2021/09/27 03:49:41;;;;;;;11.18;7.83;;;;;;;3.07;100.00;100079.34;1663052;86;20892;-62
2021/09/27 03:52:13;;;;;;;19.27;11.10;;;;;;;3.15;100.00;100080.52;1662487;85;21699;-62
2021/09/27 03:54:44;;;;;;;13.50;8.98;;;;;;;3.24;100.00;100079.08;1658742;86;21104;-62
2021/09/27 03:57:22;;;;;;;15.28;8.70;;;;;;;3.26;100.00;100080.52;1658200;86;21525;-62
2021/09/27 03:59:55;;;;;;;;;;;;;;;3.25;100.00;100072.23;1661095;85;20912;-62
2021/09/27 04:03:09;;;;;;;10.72;9.08;;;;;;;3.25;100.00;100074.06;1672800;84;20140;-62
2021/09/27 04:06:00;;;;;;;12.65;8.25;;;;;;;3.28;100.00;100076.33;1739087;81;20969;-63
2021/09/27 04:08:58;;;;;;;12.85;8.98;;;;;;;3.29;100.00;100076.66;1755838;81;21139;-60
2021/09/27 04:11:48;;;;;;;15.28;9.48;;;;;;;3.32;100.00;100077.59;1755610;81;20893;-62
2021/09/27 04:14:41;;;;;;;12.47;8.30;;;;;;;3.29;100.00;100083.29;1755617;81;21423;-62
2021/09/27 04:17:23;;;;;;;11.03;7.50;;;;;;;3.29;100.00;100072.68;1755724;81;20865;-63
2021/09/27 04:20:01;;;;;;;10.95;7.37;;;;;;;3.33;100.00;100080.06;1755431;81;20857;-63
2021/09/27 04:22:38;;;;;;;10.88;7.95;;;;;;;3.41;100.00;100079.91;1755602;81;21687;-62
2021/09/27 04:25:28;;;;;;;6.97;6.12;;;;;;;3.44;100.00;100078.70;1755969;81;20932;-63
2021/09/27 04:28:03;;;;;;;8.60;7.17;;;;;;;3.48;100.00;100074.65;1755766;81;21443;-62
2021/09/27 04:30:57;;;;;;;11.48;7.30;;;;;;;3.58;100.00;100083.59;1755653;81;20908;-63
2021/09/27 04:33:36;;;;;;;10.35;6.60;;;;;;;3.67;100.00;100085.56;1755671;81;21421;-62
2021/09/27 04:36:19;;;;;;;16.87;10.45;;;;;;;3.75;100.00;100086.24;1755963;81;21086;-62
2021/09/27 04:38:48;;;;;;;45.98;19.42;;;;;;;3.97;100.00;100080.81;1753340;81;20913;-62
2021/09/27 04:41:49;;;;;;;73.47;26.20;;;;;;;4.25;100.00;100082.88;1754686;81;20960;-62
2021/09/27 04:45:04;;;;;;;71.85;26.23;;;;;;;4.48;100.00;100083.03;1755597;81;20876;-62
2021/09/27 04:47:52;;;;;;;45.10;16.67;;;;;;;4.70;100.00;100087.68;1745949;81;21030;-62
2021/09/27 04:50:42;;;;;;;33.70;14.10;;;;;;;4.97;100.00;100095.70;1743985;81;21134;-63
2021/09/27 04:53:49;;;;;;;28.23;12.13;;;;;;;5.18;100.00;100100.83;1735430;81;20894;-63
2021/09/27 04:56:33;;;;;;;14.03;6.85;;;;;;;5.43;100.00;100094.87;1740304;82;21336;-64
2021/09/27 04:59:38;;;;;;;14.78;7.22;;;;;;;5.64;100.00;100099.97;1808583;79;20959;-64
2021/09/27 05:02:33;;;;;;;8.10;6.15;;;;;;;5.85;100.00;100102.06;1809195;79;20912;-63
2021/09/27 05:05:21;;;;;;;13.32;6.08;;;;;;;6.04;100.00;100101.22;1810983;79;21177;-63
2021/09/27 05:08:12;;;;;;;8.58;5.97;;;;;;;6.22;100.00;100101.36;1802238;79;23529;-63
2021/09/27 05:11:08;;;;;;;5.85;5.25;;;;;;;6.37;100.00;100107.75;1714110;83;21057;-61
2021/09/27 05:14:09;;;;;;;9.30;5.53;;;;;;;6.55;100.00;100099.56;1719235;82;20932;-62
2021/09/27 05:17:20;;;;;;;9.93;6.78;;;;;;;6.80;100.00;100102.27;1756954;80;21399;-62
2021/09/27 05:20:05;;;;;;;12.30;6.92;;;;;;;7.12;100.00;100100.92;1691362;83;21433;-63
2021/09/27 05:23:03;;;;;;;7.10;5.80;;;;;;;7.39;100.00;100109.52;1767316;79;21478;-62
2021/09/27 05:26:13;;;;;;;7.70;6.08;;;;;;;7.58;100.00;100109.05;1734266;80;20932;-62
2021/09/27 05:29:02;;;;;;;7.70;4.80;;;;;;;7.81;100.00;100113.73;1763788;81;20997;-63
2021/09/27 05:32:09;;;;;;;11.80;5.58;;;;;;;8.02;100.00;100114.64;1763612;81;21472;-63
2021/09/27 05:35:11;;;;;;;16.27;5.53;;;;;;;8.27;100.00;100121.76;1746004;81;21070;-60
2021/09/27 05:38:10;;;;;;;6.65;4.47;;;;;;;8.51;100.00;100121.39;1737456;82;21067;-61
2021/09/27 05:40:57;;;;;;;9.15;5.80;;;;;;;8.78;100.00;100116.48;1739009;82;21031;-61
2021/09/27 05:43:37;;;;;;;10.82;4.97;;;;;;;8.93;100.00;100115.53;1738776;82;20944;-61
2021/09/27 05:46:49;;;;;;;7.55;5.03;;;;;;;9.12;100.00;100116.28;1735999;80;20997;-61
2021/09/27 05:49:31;;;;;;;7.97;5.12;;;;;;;9.36;100.00;100110.97;1765455;80;20983;-61
2021/09/27 05:52:08;;;;;;;8.23;5.62;;;;;;;9.60;100.00;100119.80;1826122;77;20909;-61
2021/09/27 05:55:05;;;;;;;7.10;5.17;;;;;;;9.72;100.00;100127.84;1835430;77;20956;-63
2021/09/27 05:58:03;;;;;;;12.25;6.42;;;;;;;9.93;100.00;100131.27;1804189;77;22129;-62
2021/09/27 06:01:13;;;;;;;10.03;6.65;;;;;;;9.92;100.00;100131.50;1817910;78;20950;-62
2021/09/27 06:04:06;;;;;;;9.38;6.30;;;;;;;10.08;100.00;100122.73;1808011;78;22116;-61
2021/09/27 06:06:53;;;;;;;7.70;6.72;;;;;;;10.38;100.00;100124.44;1816659;78;21741;-61
2021/09/27 06:09:41;;;;;;;10.80;6.58;;;;;;;10.27;100.00;100128.23;1827175;78;20930;-61
2021/09/27 06:12:58;;;;;;;8.48;5.83;;;;;;;10.23;100.00;100128.94;1827286;78;21032;-61
2021/09/27 06:15:28;;;;;;;9.58;5.65;;;;;;;10.17;100.00;100121.32;1824620;77;21001;-60
2021/09/27 06:18:25;;;;;;;12.40;9.48;;;;;;;10.09;100.00;100117.64;1819012;78;20902;-61
2021/09/27 06:21:20;;;;;;;8.45;6.75;;;;;;;10.15;100.00;100132.00;1791623;79;20875;-61
2021/09/27 06:24:15;;;;;;;7.67;6.17;;;;;;;10.22;100.00;100125.98;1817950;78;20964;-62
2021/09/27 06:26:50;;;;;;;11.38;7.30;;;;;;;10.32;100.00;100132.11;1801059;77;21407;-60
2021/09/27 06:29:39;;;;;;;12.55;7.53;;;;;;;10.28;100.00;100123.17;1798388;77;21372;-60
2021/09/27 06:32:28;;;;;;;14.58;8.30;;;;;;;10.69;100.00;100127.19;1807754;78;21128;-60
2021/09/27 06:35:01;;;;;;;9.98;5.47;;;;;;;11.31;100.00;100129.85;1812168;77;20885;-60
2021/09/27 06:37:27;;;;;;;8.88;4.87;;;;;;;11.60;100.00;100139.17;1812018;77;21369;-61
2021/09/27 06:39:54;;;;;;;10.55;5.87;;;;;;;11.56;100.00;100136.69;1820994;77;20985;-60
2021/09/27 06:42:20;;;;;;;9.18;5.08;;;;;;;11.58;100.00;100137.26;1809241;79;21063;-60
2021/09/27 06:44:58;;;;;;;;;;;;;;;;;;;;;
2021/09/27 06:47:30;;;;;;;11.48;7.08;;;;;;;12.59;100.00;100139.70;1798165;79;20936;-60
2021/09/27 06:49:56;;;;;;;13.20;5.65;;;;;;;12.55;100.00;100144.48;1776964;80;21001;-60
2021/09/27 06:52:23;;;;;;;9.80;5.58;;;;;;;12.61;100.00;100144.81;1830979;78;21423;-60
2021/09/27 06:54:49;;;;;;;7.87;4.22;;;;;;;12.89;100.00;100145.66;1816635;78;20948;-60
2021/09/27 06:57:16;;;;;;;9.00;5.60;;;;;;;12.85;100.00;100139.41;1803360;77;21892;-60
2021/09/27 06:59:42;;;;;;;10.05;4.67;;;;;;;12.68;100.00;100140.58;1824135;77;20964;-59
2021/09/27 07:02:09;;;;;;;9.73;6.62;;;;;;;12.95;100.00;100135.20;1844565;77;21388;-60
2021/09/27 07:04:35;;;;;;;5.95;3.58;;;;;;;13.45;100.00;100138.90;1834580;77;20944;-60
2021/09/27 07:07:04;;;;;;;5.85;3.08;;;;;;;13.92;100.00;100148.91;1839657;77;20944;-60
2021/09/27 07:09:31;;;;;;;6.05;4.15;;;;;;;14.03;100.00;100148.97;1794614;78;21435;-61
2021/09/27 07:11:58;;;;;;;6.65;4.00;;;;;;;14.18;100.00;100150.92;1790773;80;20865;-61
2021/09/27 07:14:25;;;;;;;7.37;6.22;;;;;;;14.18;100.00;100149.03;1790974;80;20987;-60
2021/09/27 07:16:51;;;;;;;5.55;2.80;;;;;;;14.08;100.00;100147.09;1790244;78;21260;-62
2021/09/27 07:19:17;;;;;;;3.50;2.33;;;;;;;14.31;98.25;100143.17;1816562;77;21594;-60
2021/09/27 07:21:44;;;;;;;3.27;2.02;;;;;;;14.35;93.90;100142.89;1809130;78;21081;-60
2021/09/27 07:24:11;;;;;;;2.55;2.15;;;;;;;14.17;94.27;100154.72;1816297;78;21165;-60
2021/09/27 07:26:38;;;;;;;2.10;1.90;;;;;;;14.17;94.27;100154.72;1814450;78;21417;-61
2021/09/27 07:29:04;;;;;;;3.05;2.08;;;;;;;13.51;95.03;100148.64;1801893;78;20957;-60
2021/09/27 07:31:32;;;;;;;5.70;2.08;;;;;;;13.51;95.03;100148.64;1805509;78;21331;-61
2021/09/27 07:34:02;;;;;;;5.10;2.27;;;;;;;13.33;97.82;100152.26;1781171;78;22820;-60
2021/09/27 07:36:29;;;;;;;4.22;2.15;;;;;;;13.34;98.06;100149.31;1817639;77;20925;-62
2021/09/27 07:38:56;;;;;;;5.25;2.37;;;;;;;13.47;96.05;100150.25;1824494;78;20891;-60
2021/09/27 07:41:25;;;;;;;6.42;2.58;;;;;;;13.60;95.15;100145.48;1825237;78;21467;-61
2021/09/27 07:43:52;;;;;;;4.75;2.45;;;;;;;13.87;93.84;100146.73;1811305;79;20948;-61
2021/09/27 07:46:19;;;;;;;3.72;2.05;;;;;;;13.96;91.89;100153.23;1802716;78;20998;-61
2021/09/27 07:48:47;;;;;;;3.30;2.33;;;;;;;13.46;91.61;100147.25;1823859;78;22158;-61
2021/09/27 07:51:14;;;;;;;2.37;2.17;;;;;;;13.50;93.97;100145.67;1825460;78;28054;-61
2021/09/27 07:53:41;;;;;;;4.03;2.70;;;;;;;13.66;93.40;100148.47;1825355;78;21421;-62
2021/09/27 07:56:07;;;;;;;2.33;1.98;;;;;;;14.23;91.49;100146.90;1825555;78;20968;-61
2021/09/27 07:58:34;;;;;;;2.50;2.10;;;;;;;14.75;83.34;100154.15;1825220;78;21099;-61
2021/09/27 08:01:02;;;;;;;2.72;2.12;;;;;;;14.86;82.49;100166.59;1825949;77;21036;-61
2021/09/27 08:03:28;;;;;;;1.50;1.40;;;;;;;14.86;82.49;100166.59;1806792;79;20885;-61
2021/09/27 08:05:55;;;;;;;5.42;1.80;;;;;;;14.76;78.40;100162.52;1802147;79;20973;-61
2021/09/27 08:08:22;;;;;;;1.90;1.42;;;;;;;14.71;80.51;100154.40;1776215;80;21490;-62
2021/09/27 08:10:48;;;;;;;2.20;1.70;;;;;;;14.54;79.48;100155.97;1818248;78;21828;-61
2021/09/27 08:13:15;;;;;;;3.37;1.80;;;;;;;13.87;81.64;100155.63;1773071;80;20912;-62
2021/09/27 08:15:46;;;;;;;4.15;2.52;;;;;;;13.65;87.89;100149.56;1811835;79;21325;-61
2021/09/27 08:18:14;;;;;;;2.20;2.00;;;;;;;14.24;79.87;100156.09;1825617;78;21447;-61
2021/09/27 08:20:55;;;;;;;3.35;2.00;;;;;;;14.44;79.95;100153.20;1817677;78;20821;-63
2021/09/27 08:23:22;;;;;;;4.42;2.98;;;;;;;14.27;81.18;100152.86;1819500;77;21663;-62
2021/09/27 08:25:50;;;;;;;5.42;2.52;;;;;;;14.10;84.08;100155.75;1834246;77;20904;-62
2021/09/27 08:28:19;;;;;;;4.17;2.30;;;;;;;13.65;83.64;100154.41;1799689;77;20955;-63
2021/09/27 08:30:58;;;;;;;4.42;2.50;;;;;;;13.59;85.42;100155.97;1802554;79;21000;-61
2021/09/27 08:33:25;;;;;;;2.55;1.98;;;;;;;14.01;83.44;100158.66;1802377;79;20976;-63
2021/09/27 08:35:53;;;;;;;2.97;2.40;;;;;;;14.05;80.22;100165.72;1802382;79;21108;-60
2021/09/27 08:38:22;;;;;;;4.83;2.87;;;;;;;13.67;79.86;100162.23;1802118;79;21020;-59
2021/09/27 08:41:04;;;;;;;5.17;4.65;;;;;;;13.12;82.17;100156.64;1822115;77;20943;-61
2021/09/27 08:44:06;;;;;;;4.03;2.65;;;;;;;12.81;85.77;100167.95;1811553;77;20951;-60
2021/09/27 08:46:48;;;;;;;8.58;5.28;;;;;;;12.65;85.27;100171.53;1796219;79;20829;-60
2021/09/27 08:49:37;;;;;;;5.03;3.47;;;;;;;12.58;88.13;100163.64;1841320;77;21206;-62
2021/09/27 08:52:06;;;;;;;3.15;2.20;;;;;;;12.82;86.21;100159.33;1773223;79;21082;-65
2021/09/27 08:54:33;;;;;;;2.20;1.90;;;;;;;13.57;81.56;100155.41;1774550;80;21029;-63
2021/09/27 08:57:09;;;;;;;3.97;2.30;;;;;;;13.51;83.53;100159.42;1771504;80;21462;-63
2021/09/27 09:00:16;;;;;;;2.80;1.70;;;;;;;13.49;84.82;100167.50;1748613;80;21033;-64
2021/09/27 09:03:07;;;;;;;2.00;1.90;;;;;;;13.47;85.33;100161.03;1734501;80;21122;-63
2021/09/27 09:06:06;;;;;;;2.30;1.70;;;;;;;13.75;83.83;100165.00;1737918;81;21557;-61
2021/09/27 09:08:55;;;;;;;1.70;1.52;;;;;;;13.50;82.93;100160.51;1731537;80;21021;-61
2021/09/27 09:11:53;;;;;;;2.20;1.55;;;;;;;13.17;82.83;100159.38;1738574;82;21058;-62
2021/09/27 09:14:42;;;;;;;3.10;1.62;;;;;;;12.88;83.39;100163.68;1744561;80;21378;-61
2021/09/27 09:17:31;;;;;;;2.47;2.20;;;;;;;12.58;87.41;100158.25;1775959;80;21092;-61
2021/09/27 09:19:59;;;;;;;3.65;1.87;;;;;;;12.60;88.25;100155.31;1771269;80;20914;-61
2021/09/27 09:22:36;;;;;;;6.47;2.70;;;;;;;12.57;89.63;100161.21;1772887;79;20974;-59
2021/09/27 09:25:10;;;;;;;7.00;2.08;;;;;;;12.75;88.13;100156.02;1773341;79;20950;-60
2021/09/27 09:27:38;;;;;;;4.35;2.05;;;;;;;12.76;82.49;100157.62;1798337;77;21264;-60
2021/09/27 09:30:07;;;;;;;7.15;3.58;;;;;;;12.59;83.75;100159.89;1856711;77;21093;-59
2021/09/27 09:32:35;;;;;;;3.70;2.60;;;;;;;12.51;87.18;100150.89;1856399;77;20904;-58
2021/09/27 09:35:21;;;;;;;1.95;1.75;;;;;;;12.59;87.84;100155.02;1857225;77;20943;-59
2021/09/27 09:37:54;;;;;;;2.95;2.65;;;;;;;12.54;83.96;100147.72;1856506;77;21364;-61
2021/09/27 09:40:31;;;;;;;1.72;1.62;;;;;;;12.49;85.61;100157.59;1856538;77;21343;-60
2021/09/27 09:43:05;;;;;;;4.72;2.12;;;;;;;12.41;87.52;100152.94;1856795;77;21077;-61
2021/09/27 09:45:36;;;;;;;3.12;1.67;;;;;;;12.44;86.35;100149.77;1856715;77;20861;-60
2021/09/27 09:48:22;;;;;;;2.47;1.90;;;;;;;12.39;86.51;100151.02;1823348;77;21003;-59
2021/09/27 09:50:53;;;;;;;2.10;1.60;;;;;;;12.42;85.82;100161.81;1856167;77;20896;-59
2021/09/27 09:53:30;;;;;;;1.85;1.75;;;;;;;12.42;85.16;100152.39;1856300;77;21454;-59
2021/09/27 09:56:09;;;;;;;1.72;1.50;;;;;;;12.49;86.07;100157.59;1856169;77;21026;-59
2021/09/27 09:58:45;;;;;;;2.95;2.00;;;;;;;12.53;84.38;100161.42;1847642;76;20956;-59
2021/09/27 10:01:33;;;;;;;2.33;1.82;;;;;;;12.48;84.72;100162.72;1828114;77;20925;-60
2021/09/27 10:04:15;;;;;;;2.30;2.10;;;;;;;12.51;88.07;100157.62;1842749;77;21422;-60
2021/09/27 10:06:57;;;;;;;3.10;1.95;;;;;;;12.63;85.29;100161.00;1816009;77;20975;-58
2021/09/27 10:09:33;;;;;;;2.27;2.08;;;;;;;12.51;86.42;100157.62;1808726;78;20929;-60
2021/09/27 10:12:07;;;;;;;2.75;1.95;;;;;;;12.57;88.87;100161.21;1806942;77;20880;-63
2021/09/27 10:14:42;;;;;;;3.42;2.33;;;;;;;12.76;89.01;100158.98;1777629;80;20950;-63
2021/09/27 10:17:34;;;;;;;2.92;2.62;;;;;;;12.87;87.13;100153.98;1777766;80;20924;-62
2021/09/27 10:20:59;;;;;;;;;;;;;;;;;;;;;
2021/09/27 10:23:48;;;;;;;2.40;1.80;;;;;;;13.05;84.10;100152.80;1632601;85;21435;-63
2021/09/27 10:26:29;;;;;;;2.00;1.80;;;;;;;13.10;83.98;100152.84;1678277;84;21447;-64
2021/09/27 10:29:09;;;;;;;1.98;1.45;;;;;;;13.06;83.94;100146.36;1713534;83;21043;-61
2021/09/27 10:31:39;;;;;;;2.22;1.50;;;;;;;12.99;83.39;100150.60;1713391;83;21513;-60
2021/09/27 10:37:33;;;;;;;;;;;;;;;13.04;85.17;100149.30;1693198;84;21881;-61
2021/09/27 10:40:00;;;;;;;2.15;1.92;;;;;;;13.09;85.68;100154.73;1721156;82;20093;-63
2021/09/27 10:42:32;;;;;;;3.58;2.40;;;;;;;13.13;83.31;100142.92;1727887;81;20954;-61
2021/09/27 10:45:01;;;;;;;4.17;2.70;;;;;;;13.33;82.71;100145.52;1728064;81;20914;-61
2021/09/27 10:47:32;;;;;;;3.98;2.60;;;;;;;13.26;82.91;100151.11;1728381;81;20895;-61
2021/09/27 10:50:13;;;;;;;3.40;2.75;;;;;;;13.46;82.08;100151.30;1727973;82;21925;-61
2021/09/27 10:52:57;;;;;;;2.85;2.22;;;;;;;13.53;81.48;100149.73;1705788;82;20967;-61
2021/09/27 10:55:50;;;;;;;3.10;2.37;;;;;;;13.68;82.58;100155.23;1704660;83;21489;-62
2021/09/27 10:58:40;;;;;;;14.00;4.85;;;;;;;13.91;82.21;100156.75;1729256;82;21462;-63
2021/09/27 11:01:08;;;;;;;3.47;2.08;;;;;;;14.01;75.23;100153.81;1718025;80;21076;-63
2021/09/27 11:03:52;;;;;;;4.58;2.35;;;;;;;13.46;75.42;100136.47;1789883;79;21924;-62
2021/09/27 11:06:46;;;;;;;13.20;4.50;;;;;;;13.46;76.63;100147.80;1763425;80;21196;-61
2021/09/27 11:09:28;;;;;;;2.90;2.10;;;;;;;13.49;77.62;100149.42;1714372;80;20945;-64
2021/09/27 11:12:31;;;;;;;9.18;3.80;;;;;;;13.56;76.67;100152.45;1781437;80;20889;-62
2021/09/27 11:15:02;;;;;;;4.53;1.92;;;;;;;13.50;77.48;100159.70;1784823;79;21021;-61
2021/09/27 11:17:49;;;;;;;1.57;1.45;;;;;;;13.58;78.65;100149.77;1785697;79;20944;-62
2021/09/27 11:20:38;;;;;;;3.55;1.67;;;;;;;13.64;76.30;100149.27;1789142;78;21423;-62
2021/09/27 11:23:21;;;;;;;1.80;1.70;;;;;;;13.50;77.31;100149.72;1827865;77;21011;-62
2021/09/27 11:26:20;;;;;;;2.55;1.70;;;;;;;13.33;76.29;100140.12;1819286;78;21469;-62
2021/09/27 11:29:05;;;;;;;7.00;2.58;;;;;;;13.27;78.71;100146.02;1817489;77;21389;-61
2021/09/27 11:31:36;;;;;;;5.90;2.12;;;;;;;13.24;79.42;100151.36;1824098;77;21825;-62
2021/09/27 11:34:27;;;;;;;4.78;2.75;;;;;;;13.36;77.51;100151.77;1828129;77;21406;-61
2021/09/27 11:37:18;;;;;;;4.78;2.15;;;;;;;13.34;77.50;100150.66;1823305;77;20982;-63
2021/09/27 11:40:13;;;;;;;4.65;2.15;;;;;;;13.07;77.66;100142.59;1737732;82;20993;-61
2021/09/27 11:43:13;;;;;;;6.53;2.50;;;;;;;12.99;78.20;100141.71;1737690;82;21084;-62
2021/09/27 11:46:07;;;;;;;2.58;2.10;;;;;;;12.92;79.86;100140.56;1732614;80;22248;-64
2021/09/27 11:48:46;;;;;;;5.30;3.60;;;;;;;12.85;80.02;100138.61;1741238;82;20955;-63
2021/09/27 11:51:26;;;;;;;4.45;3.17;;;;;;;12.78;79.96;100140.14;1741651;81;21495;-63
2021/09/27 11:54:05;;;;;;;4.35;2.70;;;;;;;12.67;79.77;100141.66;1741413;81;21031;-60
2021/09/27 11:56:58;;;;;;;5.03;2.90;;;;;;;12.70;78.88;100143.84;1741927;82;21026;-60
2021/09/27 11:59:57;;;;;;;10.48;2.85;;;;;;;12.80;79.50;100135.86;1741816;80;21179;-59
2021/09/27 12:02:41;;;;;;;3.42;2.65;;;;;;;12.93;78.86;100143.52;1741811;82;20999;-59
2021/09/27 12:05:17;;;;;;;4.15;2.83;;;;;;;12.94;76.76;100145.17;1753848;80;21447;-60
2021/09/27 12:08:04;;;;;;;7.53;3.42;;;;;;;12.91;76.51;100136.25;1773085;79;20962;-59
2021/09/27 12:10:41;;;;;;;4.20;3.08;;;;;;;12.88;78.26;100132.70;1742682;80;21095;-59
2021/09/27 12:13:19;;;;;;;2.62;2.20;;;;;;;13.64;77.19;100136.59;1753993;81;21140;-59
2021/09/27 12:15:55;;;;;;;2.65;1.60;;;;;;;14.70;68.72;100140.08;1775071;78;21485;-59
2021/09/27 12:18:44;;;;;;;2.05;1.92;;;;;;;15.47;64.14;100141.49;1816731;77;21310;-59
2021/09/27 12:21:26;;;;;;;1.45;1.35;;;;;;;16.04;64.34;100141.67;1827785;78;20882;-59
2021/09/27 12:24:19;;;;;;;1.40;1.20;;;;;;;16.39;58.27;100141.30;1816081;78;20896;-59
2021/09/27 12:26:55;;;;;;;1.40;1.17;;;;;;;16.12;59.58;100142.19;1829139;78;20879;-61
2021/09/27 12:29:26;;;;;;;2.75;1.95;;;;;;;15.79;58.99;100143.10;1804981;79;20885;-59
2021/09/27 12:31:56;;;;;;;10.38;4.97;;;;;;;15.54;61.35;100139.88;1810352;78;20989;-60
2021/09/27 12:34:39;;;;;;;10.43;7.12;;;;;;;15.42;64.66;100145.01;1824566;78;20972;-60